Time;durP1;ratioP1;P1;durP2;ratioP2;P2;SDS_P1;SDS_P2;PMS_P1;PMS_P2;Temp;Humidity;BMP_temperature;BMP_pressure;BME280_temperature;BME280_humidity;BME280_pressure;Samples;Min_cycle;Max_cycle;Signal;HPM_P1;HPM_P2
2023/06/27 00:01:06;;;;;;;;;;;21.00;65.90;;;;;;6253868;28;1898;-75
2023/06/27 00:04:10;;;;;;;;;;;21.00;66.20;;;;;;6215043;28;2332;-74
2023/06/27 00:07:11;;;;;;;;;;;20.90;66.40;;;;;;6228306;28;1730;-75
2023/06/27 00:10:13;;;;;;;;;;;20.90;66.20;;;;;;6230861;28;1487;-76
2023/06/27 00:13:16;;;;;;;;;;;20.90;66.70;;;;;;6247262;28;1362;-75
2023/06/27 00:16:17;;;;;;;;;;;20.90;66.60;;;;;;6229791;28;1382;-75
2023/06/27 00:19:21;;;;;;;;;;;20.90;66.70;;;;;;6229156;28;1117;-77
2023/06/27 00:22:23;;;;;;;;;;;20.80;66.80;;;;;;6228546;28;1902;-76
2023/06/27 00:25:25;;;;;;;;;;;20.80;66.80;;;;;;6251173;28;1385;-75
2023/06/27 00:28:27;;;;;;;;;;;20.90;67.80;;;;;;6253106;28;1094;-75
2023/06/27 00:31:28;;;;;;;;;;;20.90;66.90;;;;;;6252886;28;1363;-77
2023/06/27 00:34:31;;;;;;;;;;;20.90;66.90;;;;;;6227772;28;1788;-75
2023/06/27 00:37:33;;;;;;;;;;;20.90;67.30;;;;;;6228814;28;1024;-75
2023/06/27 00:40:35;;;;;;;;;;;20.90;67.60;;;;;;6227675;28;1778;-75
2023/06/27 00:43:36;;;;;;;;;;;20.80;67.20;;;;;;6237002;28;1976;-76
2023/06/27 00:46:39;;;;;;;;;;;20.80;68.10;;;;;;6236028;28;1702;-76
2023/06/27 00:49:42;;;;;;;;;;;20.90;67.80;;;;;;6252750;28;1785;-76
2023/06/27 00:52:44;;;;;;;;;;;20.90;67.50;;;;;;6245527;28;1683;-76
2023/06/27 00:55:46;;;;;;;;;;;20.90;68.50;;;;;;6232470;28;2056;-76
2023/06/27 00:58:48;;;;;;;;;;;20.90;68.30;;;;;;6233376;28;1046;-77
2023/06/27 01:01:49;;;;;;;;;;;20.80;67.90;;;;;;6233427;28;1957;-77
2023/06/27 01:04:53;;;;;;;;;;;20.80;67.80;;;;;;6259828;28;1037;-76
2023/06/27 01:07:58;;;;;;;;;;;20.80;68.20;;;;;;6250722;28;1714;-77
2023/06/27 01:11:04;;;;;;;;;;;20.70;68.60;;;;;;6232337;28;1667;-77
2023/06/27 01:14:07;;;;;;;;;;;20.70;68.70;;;;;;6234039;28;1730;-77
2023/06/27 01:17:09;;;;;;;;;;;20.60;70.10;;;;;;6233029;28;1075;-76
2023/06/27 01:20:13;;;;;;;;;;;20.50;69.50;;;;;;6249155;28;1750;-74
2023/06/27 01:23:19;;;;;;;;;;;20.50;69.20;;;;;;6240664;28;1890;-75
2023/06/27 01:26:22;;;;;;;;;;;20.50;69.60;;;;;;6239478;28;1084;-75
2023/06/27 01:29:25;;;;;;;;;;;20.40;69.90;;;;;;6237683;28;1099;-76
2023/06/27 01:32:32;;;;;;;;;;;20.30;70.20;;;;;;6233926;28;1718;-74
2023/06/27 01:35:35;;;;;;;;;;;20.30;69.70;;;;;;6245995;28;1472;-75
2023/06/27 01:38:43;;;;;;;;;;;20.30;70.50;;;;;;6257382;28;1013;-75
2023/06/27 01:41:48;;;;;;;;;;;20.30;70.20;;;;;;6255909;28;1948;-77
2023/06/27 01:44:50;;;;;;;;;;;20.30;70.10;;;;;;6254557;28;1123;-76
2023/06/27 01:47:54;;;;;;;;;;;20.20;70.00;;;;;;6254695;28;1048;-75
2023/06/27 01:50:56;;;;;;;;;;;20.30;70.80;;;;;;6250469;28;1789;-76
2023/06/27 01:53:57;;;;;;;;;;;20.30;70.60;;;;;;6231981;28;1800;-76
2023/06/27 01:57:00;;;;;;;;;;;20.40;71.20;;;;;;6226853;28;1092;-77
2023/06/27 02:00:03;;;;;;;;;;;20.50;71.50;;;;;;6226786;28;1742;-75
2023/06/27 02:03:04;;;;;;;;;;;20.50;70.80;;;;;;6229155;28;2488;-75
2023/06/27 02:06:06;;;;;;;;;;;20.60;70.80;;;;;;6202103;28;1179;-76
2023/06/27 02:09:08;;;;;;;;;;;20.60;70.50;;;;;;6202175;28;1109;-74
2023/06/27 02:12:11;;;;;;;;;;;20.60;70.70;;;;;;6205070;28;1671;-76
2023/06/27 02:15:13;;;;;;;;;;;20.60;70.90;;;;;;6251919;28;1052;-76
2023/06/27 02:18:15;;;;;;;;;;;20.60;70.80;;;;;;6251368;28;1990;-76
2023/06/27 02:21:17;;;;;;;;;;;20.60;70.30;;;;;;6250901;28;1092;-75
2023/06/27 02:24:19;;;;;;;;;;;20.60;70.50;;;;;;6248696;28;1906;-77
2023/06/27 02:27:22;;;;;;;;;;;20.50;70.40;;;;;;6251897;28;1111;-76
2023/06/27 02:30:23;;;;;;;;;;;20.50;70.40;;;;;;6252146;28;1057;-76
2023/06/27 02:33:25;;;;;;;;;;;20.50;70.30;;;;;;6232633;28;1701;-77
2023/06/27 02:36:27;;;;;;;;;;;20.50;70.80;;;;;;6226950;28;1014;-76
2023/06/27 02:39:29;;;;;;;;;;;20.50;70.40;;;;;;6226777;28;1099;-74
2023/06/27 02:42:32;;;;;;;;;;;20.50;70.40;;;;;;6232632;28;1902;-75
2023/06/27 02:45:33;;;;;;;;;;;20.40;70.50;;;;;;6250282;28;1722;-76
2023/06/27 02:48:35;;;;;;;;;;;20.50;70.70;;;;;;6251259;28;1108;-75
2023/06/27 02:51:37;;;;;;;;;;;20.50;70.80;;;;;;6249864;28;1686;-76
2023/06/27 02:54:38;;;;;;;;;;;20.50;70.60;;;;;;6251271;28;1748;-77
2023/06/27 02:57:41;;;;;;;;;;;20.50;70.60;;;;;;6250757;28;1106;-76
2023/06/27 03:00:43;;;;;;;;;;;20.50;70.30;;;;;;6244915;28;1675;-78
2023/06/27 03:03:45;;;;;;;;;;;20.40;71.00;;;;;;6226013;28;1909;-78
2023/06/27 03:06:47;;;;;;;;;;;20.50;70.90;;;;;;6237871;28;1738;-75
2023/06/27 03:09:49;;;;;;;;;;;20.50;70.60;;;;;;6250833;28;1030;-76
2023/06/27 03:12:52;;;;;;;;;;;20.50;70.60;;;;;;6239919;28;1741;-77
2023/06/27 03:15:53;;;;;;;;;;;20.40;70.60;;;;;;6250336;28;1143;-76
2023/06/27 03:18:55;;;;;;;;;;;20.40;70.80;;;;;;6250867;28;1056;-77
2023/06/27 03:21:57;;;;;;;;;;;20.30;70.90;;;;;;6248724;28;1979;-76
2023/06/27 03:24:58;;;;;;;;;;;20.30;71.70;;;;;;6252751;28;1100;-76
2023/06/27 03:28:02;;;;;;;;;;;20.30;72.10;;;;;;6241282;28;1812;-75
2023/06/27 03:31:04;;;;;;;;;;;20.30;72.10;;;;;;6225805;28;1678;-77
2023/06/27 03:34:05;;;;;;;;;;;20.30;71.80;;;;;;6228130;28;1269;-77
2023/06/27 03:37:07;;;;;;;;;;;20.30;71.40;;;;;;6231212;28;1031;-78
2023/06/27 03:40:09;;;;;;;;;;;20.30;71.40;;;;;;6231902;28;1037;-78
2023/06/27 03:43:13;;;;;;;;;;;20.20;71.70;;;;;;6244294;28;1906;-79
2023/06/27 03:46:15;;;;;;;;;;;20.20;72.10;;;;;;6254020;28;1753;-75
2023/06/27 03:49:16;;;;;;;;;;;20.10;72.80;;;;;;6255291;28;1080;-76
2023/06/27 03:52:18;;;;;;;;;;;20.20;72.40;;;;;;6247642;28;1734;-77
2023/06/27 03:55:20;;;;;;;;;;;20.20;72.20;;;;;;6258137;28;1123;-76
2023/06/27 03:58:23;;;;;;;;;;;20.20;73.00;;;;;;6253914;28;1809;-79
2023/06/27 04:01:25;;;;;;;;;;;20.20;72.70;;;;;;6229115;28;1797;-80
2023/06/27 04:04:27;;;;;;;;;;;20.20;73.10;;;;;;6211203;28;2640;-77
2023/06/27 04:07:28;;;;;;;;;;;20.20;72.40;;;;;;6221740;28;1731;-75
2023/06/27 04:10:30;;;;;;;;;;;20.10;72.70;;;;;;6241441;28;1738;-76
2023/06/27 04:13:33;;;;;;;;;;;20.10;72.50;;;;;;6232246;28;1749;-77
2023/06/27 04:16:35;;;;;;;;;;;20.10;72.60;;;;;;6229159;28;1055;-79
2023/06/27 04:19:36;;;;;;;;;;;20.10;72.80;;;;;;6229048;28;1128;-76
2023/06/27 04:22:38;;;;;;;;;;;20.10;71.80;;;;;;6233908;28;1898;-79
2023/06/27 04:25:43;;;;;;;;;;;20.20;72.10;;;;;;6243582;28;1408;-78
2023/06/27 04:28:47;;;;;;;;;;;20.20;72.50;;;;;;6253701;28;1107;-78
2023/06/27 04:31:48;;;;;;;;;;;20.20;72.30;;;;;;6243272;28;1593;-78
2023/06/27 04:34:50;;;;;;;;;;;20.00;72.70;;;;;;6253836;28;1213;-78
2023/06/27 04:37:52;;;;;;;;;;;20.10;73.00;;;;;;6253585;28;1056;-78
2023/06/27 04:40:54;;;;;;;;;;;20.10;73.30;;;;;;6253488;28;1178;-78
2023/06/27 04:43:59;;;;;;;;;;;20.10;73.10;;;;;;6253168;28;1983;-76
2023/06/27 04:47:00;;;;;;;;;;;20.20;73.30;;;;;;6253484;28;1047;-76
2023/06/27 04:50:03;;;;;;;;;;;20.20;73.50;;;;;;6253168;28;1022;-79
2023/06/27 04:53:04;;;;;;;;;;;20.20;73.20;;;;;;6232813;28;1562;-76
2023/06/27 04:56:06;;;;;;;;;;;20.10;73.20;;;;;;6228751;28;978;-76
2023/06/27 04:59:10;;;;;;;;;;;20.10;73.90;;;;;;6229240;28;1015;-78
2023/06/27 05:02:12;;;;;;;;;;;20.10;74.20;;;;;;6212201;28;2944;-78
2023/06/27 05:05:13;;;;;;;;;;;20.10;74.90;;;;;;6203522;28;2866;-79
2023/06/27 05:08:15;;;;;;;;;;;20.00;75.40;;;;;;6203869;28;1097;-77
2023/06/27 05:11:17;;;;;;;;;;;20.00;74.70;;;;;;6203981;28;1089;-78
2023/06/27 05:14:20;;;;;;;;;;;20.00;74.20;;;;;;6204280;28;1093;-79
2023/06/27 05:17:22;;;;;;;;;;;20.00;74.30;;;;;;6203554;28;1026;-78
2023/06/27 05:20:24;;;;;;;;;;;20.00;73.80;;;;;;6203577;28;1118;-76
2023/06/27 05:23:26;;;;;;;;;;;20.00;74.00;;;;;;6203271;28;1898;-76
2023/06/27 05:26:27;;;;;;;;;;;20.00;75.00;;;;;;6203066;28;953;-76
2023/06/27 05:29:31;;;;;;;;;;;20.00;75.00;;;;;;6202983;28;1027;-76
2023/06/27 05:32:32;;;;;;;;;;;20.00;75.90;;;;;;6202979;28;1073;-77
2023/06/27 05:35:34;;;;;;;;;;;20.00;75.90;;;;;;6202731;28;1115;-77
2023/06/27 05:38:36;;;;;;;;;;;19.90;75.90;;;;;;6202748;28;1161;-76
2023/06/27 05:41:37;;;;;;;;;;;19.90;77.50;;;;;;6202737;28;1969;-77
2023/06/27 05:44:40;;;;;;;;;;;19.90;77.00;;;;;;6203468;28;1985;-78
2023/06/27 05:47:42;;;;;;;;;;;19.90;76.30;;;;;;6203027;28;1591;-77
2023/06/27 05:50:44;;;;;;;;;;;19.90;76.00;;;;;;6203090;28;1108;-79
2023/06/27 05:53:45;;;;;;;;;;;19.80;76.30;;;;;;6203180;28;1058;-79
2023/06/27 05:56:47;;;;;;;;;;;19.80;76.60;;;;;;6202800;28;1064;-79
2023/06/27 05:59:51;;;;;;;;;;;19.70;77.30;;;;;;6203508;28;1043;-78
2023/06/27 06:02:53;;;;;;;;;;;19.70;77.40;;;;;;6202935;28;1996;-80
2023/06/27 06:05:55;;;;;;;;;;;19.80;78.60;;;;;;6202908;28;1116;-78
2023/06/27 06:08:56;;;;;;;;;;;19.90;78.60;;;;;;6203013;28;1092;-78
2023/06/27 06:11:58;;;;;;;;;;;19.90;78.40;;;;;;6202923;28;993;-76
2023/06/27 06:15:01;;;;;;;;;;;19.90;77.00;;;;;;6203088;28;1017;-77
2023/06/27 06:18:03;;;;;;;;;;;20.00;77.60;;;;;;6203106;28;1023;-77
2023/06/27 06:21:05;;;;;;;;;;;20.00;76.70;;;;;;6202771;28;1092;-79
2023/06/27 06:24:07;;;;;;;;;;;20.10;76.80;;;;;;6202676;28;1902;-78
2023/06/27 06:27:09;;;;;;;;;;;20.20;76.50;;;;;;6203285;28;1048;-75
2023/06/27 06:30:13;;;;;;;;;;;20.30;75.90;;;;;;6203529;28;1063;-77
2023/06/27 06:33:15;;;;;;;;;;;20.30;74.60;;;;;;6203450;28;1220;-78
2023/06/27 06:36:18;;;;;;;;;;;20.30;74.30;;;;;;6202975;28;1109;-79
2023/06/27 06:39:20;;;;;;;;;;;20.30;74.70;;;;;;6202661;28;1705;-79
2023/06/27 06:42:22;;;;;;;;;;;20.30;74.70;;;;;;6202479;28;1054;-79
2023/06/27 06:45:25;;;;;;;;;;;20.50;74.00;;;;;;6202651;28;1902;-77
2023/06/27 06:48:26;;;;;;;;;;;20.60;73.10;;;;;;6202426;28;1038;-75
2023/06/27 06:51:28;;;;;;;;;;;20.70;73.20;;;;;;6202911;28;1086;-77
2023/06/27 06:54:30;;;;;;;;;;;20.70;71.80;;;;;;6202515;28;1046;-77
2023/06/27 06:57:31;;;;;;;;;;;20.80;72.00;;;;;;6202704;28;982;-78
2023/06/27 07:00:35;;;;;;;;;;;20.80;71.70;;;;;;6202623;28;3024;-78
2023/06/27 07:03:36;;;;;;;;;;;20.90;72.10;;;;;;6216715;28;3174;-78
2023/06/27 07:06:38;;;;;;;;;;;21.00;71.00;;;;;;6202072;28;1113;-78
2023/06/27 07:09:40;;;;;;;;;;;21.00;70.70;;;;;;6201367;28;1093;-79
2023/06/27 07:12:41;;;;;;;;;;;21.10;70.40;;;;;;6201835;28;1095;-78
2023/06/27 07:15:45;;;;;;;;;;;21.20;70.50;;;;;;6201796;28;1050;-78
2023/06/27 07:18:46;;;;;;;;;;;21.20;68.40;;;;;;6202284;28;1042;-78
2023/06/27 07:21:48;;;;;;;;;;;21.30;66.40;;;;;;6201443;28;1109;-76
2023/06/27 07:24:50;;;;;;;;;;;21.10;65.20;;;;;;6201966;28;1906;-79
2023/06/27 07:27:51;;;;;;;;;;;21.30;67.40;;;;;;6202046;28;1052;-78
2023/06/27 07:30:54;;;;;;;;;;;21.30;65.60;;;;;;6201203;28;1028;-78
2023/06/27 07:33:56;;;;;;;;;;;21.40;65.70;;;;;;6201596;28;1107;-77
2023/06/27 07:36:58;;;;;;;;;;;21.50;65.50;;;;;;6201572;28;1109;-78
2023/06/27 07:40:00;;;;;;;;;;;21.60;65.70;;;;;;6201357;28;1023;-78
2023/06/27 07:43:01;;;;;;;;;;;21.70;65.30;;;;;;6201290;28;1082;-76
2023/06/27 07:46:04;;;;;;;;;;;21.50;65.10;;;;;;6201863;28;1081;-77
2023/06/27 07:49:06;;;;;;;;;;;21.30;66.40;;;;;;6201390;28;1041;-76
2023/06/27 07:52:09;;;;;;;;;;;21.50;65.90;;;;;;6202205;28;1085;-78
2023/06/27 07:55:10;;;;;;;;;;;21.50;64.80;;;;;;6202095;28;1056;-77
2023/06/27 07:58:12;;;;;;;;;;;21.70;65.20;;;;;;6201126;28;1026;-76
2023/06/27 08:01:15;;;;;;;;;;;21.80;64.70;;;;;;6200845;28;1034;-75
2023/06/27 08:04:17;;;;;;;;;;;21.80;64.10;;;;;;6200531;28;1983;-79
2023/06/27 08:07:18;;;;;;;;;;;21.50;63.60;;;;;;6200808;28;1094;-77
2023/06/27 08:10:20;;;;;;;;;;;21.60;63.80;;;;;;6201234;28;1032;-78
2023/06/27 08:13:22;;;;;;;;;;;21.70;63.90;;;;;;6201405;28;1020;-78
2023/06/27 08:16:25;;;;;;;;;;;21.70;63.50;;;;;;6201428;28;1040;-79
2023/06/27 08:19:27;;;;;;;;;;;21.70;64.20;;;;;;6202544;28;1105;-76
2023/06/27 08:22:28;;;;;;;;;;;21.90;65.00;;;;;;6205370;28;1117;-76
2023/06/27 08:25:30;;;;;;;;;;;21.80;64.60;;;;;;6205029;28;1977;-75
2023/06/27 08:28:32;;;;;;;;;;;22.00;63.70;;;;;;6205280;28;1006;-76
2023/06/27 08:31:35;;;;;;;;;;;22.10;63.40;;;;;;6205226;28;1009;-77
2023/06/27 08:34:38;;;;;;;;;;;22.10;62.70;;;;;;6205441;28;1115;-76
2023/06/27 08:37:40;;;;;;;;;;;22.10;63.10;;;;;;6205366;28;1193;-77
2023/06/27 08:40:43;;;;;;;;;;;22.10;63.40;;;;;;6205052;28;1100;-78
2023/06/27 08:43:45;;;;;;;;;;;22.20;62.90;;;;;;6204800;28;1898;-76
2023/06/27 08:46:48;;;;;;;;;;;22.30;62.80;;;;;;6205090;28;1005;-78
2023/06/27 08:49:52;;;;;;;;;;;22.30;63.00;;;;;;6204388;28;1063;-77
2023/06/27 08:52:56;;;;;;;;;;;22.50;63.20;;;;;;6204892;28;1077;-76
2023/06/27 08:56:01;;;;;;;;;;;22.40;63.80;;;;;;6204204;28;1136;-78
2023/06/27 08:59:03;;;;;;;;;;;22.50;63.10;;;;;;6205405;28;1014;-78
2023/06/27 09:02:07;;;;;;;;;;;22.60;62.20;;;;;;6204095;28;1108;-75
2023/06/27 09:05:09;;;;;;;;;;;22.50;62.00;;;;;;6204060;28;1914;-79
2023/06/27 09:08:12;;;;;;;;;;;22.40;61.80;;;;;;6203719;28;1120;-79
2023/06/27 09:11:16;;;;;;;;;;;22.40;62.20;;;;;;6204035;28;1093;-77
2023/06/27 09:14:18;;;;;;;;;;;22.50;62.10;;;;;;6203874;28;1132;-78
2023/06/27 09:17:21;;;;;;;;;;;22.50;61.30;;;;;;6203875;28;1084;-79
2023/06/27 09:20:24;;;;;;;;;;;22.50;61.80;;;;;;6203935;28;1479;-79
2023/06/27 09:23:27;;;;;;;;;;;22.50;61.80;;;;;;6204416;28;1104;-76
2023/06/27 09:26:29;;;;;;;;;;;22.50;62.30;;;;;;6204183;28;1973;-78
2023/06/27 09:29:32;;;;;;;;;;;22.70;62.10;;;;;;6204135;28;1071;-78
2023/06/27 09:32:35;;;;;;;;;;;22.80;62.10;;;;;;6202905;28;1044;-76
2023/06/27 09:35:44;;;;;;;;;;;22.70;61.80;;;;;;6204171;28;1274;-77
2023/06/27 09:38:46;;;;;;;;;;;22.60;61.80;;;;;;6204786;28;1096;-76
2023/06/27 09:41:49;;;;;;;;;;;22.50;62.30;;;;;;6205163;28;1258;-75
2023/06/27 09:44:51;;;;;;;;;;;22.50;62.90;;;;;;6204745;28;1898;-75
2023/06/27 09:47:54;;;;;;;;;;;22.60;62.70;;;;;;6203823;28;1093;-77
2023/06/27 09:51:00;;;;;;;;;;;22.60;62.60;;;;;;6204678;28;1132;-76
2023/06/27 09:54:02;;;;;;;;;;;22.80;62.20;;;;;;6203072;28;1100;-77
2023/06/27 09:57:12;;;;;;;;;;;22.90;62.00;;;;;;6203425;28;1096;-76
2023/06/27 10:00:14;;;;;;;;;;;22.90;62.20;;;;;;6203862;28;1064;-78
2023/06/27 10:03:20;;;;;;;;;;;23.10;62.30;;;;;;6203694;28;1004;-76
2023/06/27 10:06:22;;;;;;;;;;;23.30;60.60;;;;;;6202999;28;1894;-78
2023/06/27 10:09:24;;;;;;;;;;;23.30;60.30;;;;;;6206020;28;989;-78
2023/06/27 10:12:25;;;;;;;;;;;23.20;59.30;;;;;;6205575;28;1087;-76
2023/06/27 10:15:27;;;;;;;;;;;23.20;60.60;;;;;;6202337;28;1041;-78
2023/06/27 10:18:30;;;;;;;;;;;23.50;59.60;;;;;;6202649;28;1091;-78
2023/06/27 10:21:32;;;;;;;;;;;23.50;59.80;;;;;;6204565;28;1167;-77
2023/06/27 10:24:34;;;;;;;;;;;23.60;60.10;;;;;;6202414;28;1902;-76
2023/06/27 10:27:38;;;;;;;;;;;23.70;59.10;;;;;;6202658;28;1026;-79
2023/06/27 10:30:44;;;;;;;;;;;23.40;58.40;;;;;;6202361;28;1010;-78
2023/06/27 10:33:50;;;;;;;;;;;23.50;58.80;;;;;;6202203;28;1099;-80
2023/06/27 10:36:57;;;;;;;;;;;23.70;59.40;;;;;;6204328;28;1011;-77
2023/06/27 10:40:00;;;;;;;;;;;23.70;59.10;;;;;;6201853;28;1125;-78
2023/06/27 10:43:03;;;;;;;;;;;23.80;59.80;;;;;;6202121;28;1089;-79
2023/06/27 10:46:05;;;;;;;;;;;23.90;59.30;;;;;;6202766;28;1903;-77
2023/06/27 10:49:09;;;;;;;;;;;24.00;58.70;;;;;;6202406;28;1092;-78
2023/06/27 10:52:11;;;;;;;;;;;23.80;58.40;;;;;;6201852;28;1018;-78
2023/06/27 10:55:23;;;;;;;;;;;23.80;58.70;;;;;;6202098;28;1072;-77
2023/06/27 10:58:26;;;;;;;;;;;23.70;58.50;;;;;;6201846;28;1075;-77
2023/06/27 11:01:28;;;;;;;;;;;23.70;59.40;;;;;;6202097;28;1110;-79
2023/06/27 11:04:39;;;;;;;;;;;23.80;58.50;;;;;;6201552;28;1902;-79
2023/06/27 11:07:41;;;;;;;;;;;24.00;58.30;;;;;;6201638;28;1506;-78
2023/06/27 11:10:50;;;;;;;;;;;23.80;57.30;;;;;;6201901;28;1083;-78
2023/06/27 11:13:53;;;;;;;;;;;23.90;56.80;;;;;;6202153;28;1096;-79
2023/06/27 11:16:54;;;;;;;;;;;23.80;57.30;;;;;;6201528;28;1081;-77
2023/06/27 11:19:57;;;;;;;;;;;23.90;58.20;;;;;;6201302;28;1063;-78
2023/06/27 11:23:00;;;;;;;;;;;24.00;57.50;;;;;;6202826;28;1078;-78
2023/06/27 11:26:01;;;;;;;;;;;24.10;57.80;;;;;;6213010;28;1960;-79
2023/06/27 11:29:03;;;;;;;;;;;24.10;57.70;;;;;;6212297;28;1056;-78
2023/06/27 11:32:05;;;;;;;;;;;24.10;56.50;;;;;;6206573;28;1017;-75
2023/06/27 11:35:09;;;;;;;;;;;23.80;57.40;;;;;;6209537;28;1119;-75
2023/06/27 11:38:11;;;;;;;;;;;23.70;58.10;;;;;;6201850;28;1046;-74
2023/06/27 11:41:18;;;;;;;;;;;24.00;57.70;;;;;;6201249;28;1179;-77
2023/06/27 11:44:20;;;;;;;;;;;24.00;56.80;;;;;;6201987;28;1903;-78
2023/06/27 11:47:21;;;;;;;;;;;23.80;57.60;;;;;;6201619;28;1109;-76
2023/06/27 11:50:25;;;;;;;;;;;23.90;58.40;;;;;;6201520;28;1081;-79
2023/06/27 11:53:27;;;;;;;;;;;24.10;57.20;;;;;;6201487;28;1065;-78
2023/06/27 11:56:29;;;;;;;;;;;24.30;57.20;;;;;;6205436;28;1140;-77
2023/06/27 11:59:32;;;;;;;;;;;24.30;57.70;;;;;;6206071;28;1046;-78
2023/06/27 12:02:33;;;;;;;;;;;24.40;58.50;;;;;;6205751;28;1092;-79
2023/06/27 12:05:44;;;;;;;;;;;24.50;58.70;;;;;;6205330;28;1977;-77
2023/06/27 12:08:46;;;;;;;;;;;24.30;58.00;;;;;;6205797;28;1080;-77
2023/06/27 12:11:52;;;;;;;;;;;24.30;57.80;;;;;;6205670;28;1002;-78
2023/06/27 12:14:53;;;;;;;;;;;24.60;56.90;;;;;;6206694;28;1105;-77
2023/06/27 12:17:56;;;;;;;;;;;24.50;57.60;;;;;;6205450;28;1106;-76
2023/06/27 12:21:00;;;;;;;;;;;24.60;57.90;;;;;;6204409;28;1259;-77
2023/06/27 12:24:02;;;;;;;;;;;24.60;57.60;;;;;;6205061;28;1059;-77
2023/06/27 12:27:04;;;;;;;;;;;24.90;56.70;;;;;;6204783;28;1956;-75
2023/06/27 12:30:09;;;;;;;;;;;24.90;56.90;;;;;;6204775;28;1101;-76
2023/06/27 12:33:11;;;;;;;;;;;24.60;57.00;;;;;;6204111;28;1205;-78
2023/06/27 12:36:17;;;;;;;;;;;24.60;57.00;;;;;;6204061;28;1061;-77
2023/06/27 12:39:19;;;;;;;;;;;24.80;56.50;;;;;;6204520;28;1097;-78
2023/06/27 12:42:20;;;;;;;;;;;25.00;57.00;;;;;;6204200;28;1038;-79
2023/06/27 12:45:22;;;;;;;;;;;25.20;56.40;;;;;;6204144;28;1989;-77
2023/06/27 12:48:24;;;;;;;;;;;25.40;56.10;;;;;;6203853;28;1095;-76
2023/06/27 12:51:27;;;;;;;;;;;25.60;54.80;;;;;;6203773;28;1027;-78
2023/06/27 12:54:28;;;;;;;;;;;25.70;54.70;;;;;;6203630;28;674;-78
2023/06/27 12:57:30;;;;;;;;;;;25.90;54.50;;;;;;6203605;28;1151;-78
2023/06/27 13:00:37;;;;;;;;;;;26.00;54.10;;;;;;6203668;28;1098;-76
2023/06/27 13:03:39;;;;;;;;;;;26.10;53.90;;;;;;6203448;28;1008;-78
2023/06/27 13:06:41;;;;;;;;;;;26.00;53.70;;;;;;6203239;28;2096;-79
2023/06/27 13:09:43;;;;;;;;;;;26.00;53.70;;;;;;6203287;28;1021;-78
2023/06/27 13:12:45;;;;;;;;;;;26.00;53.10;;;;;;6203331;28;1092;-78
2023/06/27 13:15:47;;;;;;;;;;;26.10;54.10;;;;;;6203204;28;1026;-75
2023/06/27 13:18:49;;;;;;;;;;;26.00;53.40;;;;;;6203047;28;1057;-78
2023/06/27 13:21:52;;;;;;;;;;;26.10;54.30;;;;;;6203454;28;1171;-78
2023/06/27 13:24:56;;;;;;;;;;;26.10;53.00;;;;;;6202691;28;1902;-78
2023/06/27 13:27:58;;;;;;;;;;;26.50;53.00;;;;;;6202977;28;1026;-77
2023/06/27 13:31:00;;;;;;;;;;;26.50;53.90;;;;;;6202887;28;1078;-77
2023/06/27 13:34:02;;;;;;;;;;;26.50;53.30;;;;;;6202749;28;1149;-78
2023/06/27 13:37:06;;;;;;;;;;;26.60;52.00;;;;;;6202697;28;1008;-79
2023/06/27 13:40:11;;;;;;;;;;;26.40;52.20;;;;;;6202512;28;1121;-77
2023/06/27 13:43:12;;;;;;;;;;;26.40;53.60;;;;;;6202607;28;1094;-80
2023/06/27 13:46:14;;;;;;;;;;;26.20;53.60;;;;;;6202876;28;1903;-77
2023/06/27 13:49:16;;;;;;;;;;;26.40;52.60;;;;;;6203005;28;1061;-77
2023/06/27 13:52:19;;;;;;;;;;;26.40;53.20;;;;;;6203159;28;985;-77
2023/06/27 13:55:20;;;;;;;;;;;26.40;52.10;;;;;;6204319;28;1079;-76
2023/06/27 13:58:23;;;;;;;;;;;26.10;52.20;;;;;;6203819;28;1063;-80
2023/06/27 14:01:25;;;;;;;;;;;26.30;53.90;;;;;;6202630;28;1010;-76
2023/06/27 14:04:27;;;;;;;;;;;26.30;53.00;;;;;;6202511;28;1056;-77
2023/06/27 14:07:30;;;;;;;;;;;26.40;52.80;;;;;;6202625;28;1914;-77
2023/06/27 14:10:32;;;;;;;;;;;26.30;52.40;;;;;;6206310;28;1034;-76
2023/06/27 14:13:34;;;;;;;;;;;26.00;53.10;;;;;;6202503;28;1088;-76
2023/06/27 14:16:35;;;;;;;;;;;25.90;53.20;;;;;;6201812;28;1036;-80
2023/06/27 14:19:37;;;;;;;;;;;25.90;53.60;;;;;;6201729;28;1081;-77
2023/06/27 14:22:40;;;;;;;;;;;26.10;52.90;;;;;;6202046;28;1029;-77
2023/06/27 14:25:42;;;;;;;;;;;26.00;52.80;;;;;;6201888;28;1983;-79
2023/06/27 14:28:43;;;;;;;;;;;25.80;52.50;;;;;;6202322;28;1128;-78
2023/06/27 14:31:45;;;;;;;;;;;25.80;53.00;;;;;;6202743;28;977;-77
2023/06/27 14:34:47;;;;;;;;;;;25.80;53.10;;;;;;6201697;28;1071;-76
2023/06/27 14:37:50;;;;;;;;;;;25.90;52.80;;;;;;6201950;28;1097;-77
2023/06/27 14:40:52;;;;;;;;;;;25.80;53.30;;;;;;6201642;28;1173;-79
2023/06/27 14:43:53;;;;;;;;;;;25.90;53.80;;;;;;6201452;28;1033;-79
2023/06/27 14:46:55;;;;;;;;;;;25.70;54.00;;;;;;6201447;28;1906;-79
2023/06/27 14:49:57;;;;;;;;;;;26.00;53.70;;;;;;6201264;28;1018;-76
2023/06/27 14:53:00;;;;;;;;;;;25.80;53.80;;;;;;6201293;28;1041;-78
2023/06/27 14:56:02;;;;;;;;;;;26.00;53.50;;;;;;6201140;28;1105;-76
2023/06/27 14:59:03;;;;;;;;;;;25.60;53.40;;;;;;6201284;28;1077;-76
2023/06/27 15:02:05;;;;;;;;;;;25.60;53.80;;;;;;6232100;28;2015;-78
2023/06/27 15:05:08;;;;;;;;;;;25.90;53.30;;;;;;6246104;28;1986;-81
2023/06/27 15:08:13;;;;;;;;;;;25.90;53.90;;;;;;6231180;28;1472;-75
2023/06/27 15:11:14;;;;;;;;;;;25.90;54.60;;;;;;6222849;28;1642;-75
2023/06/27 15:14:16;;;;;;;;;;;26.10;54.10;;;;;;6226630;28;1518;-73
2023/06/27 15:17:18;;;;;;;;;;;26.20;53.00;;;;;;6221680;28;1488;-73
2023/06/27 15:20:20;;;;;;;;;;;26.10;52.80;;;;;;6234306;28;1522;-75
2023/06/27 15:23:23;;;;;;;;;;;26.20;53.20;;;;;;6222777;28;1464;-75
2023/06/27 15:26:25;;;;;;;;;;;26.00;51.60;;;;;;6223483;28;1981;-75
2023/06/27 15:29:27;;;;;;;;;;;26.00;52.80;;;;;;6224324;28;1065;-76
2023/06/27 15:32:29;;;;;;;;;;;25.90;52.90;;;;;;6235814;28;1331;-76
2023/06/27 15:35:30;;;;;;;;;;;25.60;52.60;;;;;;6251146;28;1357;-75
2023/06/27 15:38:37;;;;;;;;;;;25.40;53.20;;;;;;6218300;28;2604;-74
2023/06/27 15:41:38;;;;;;;;;;;25.60;53.50;;;;;;6219697;28;2795;-75
2023/06/27 15:44:40;;;;;;;;;;;25.70;51.90;;;;;;6234674;28;1034;-76
2023/06/27 15:47:42;;;;;;;;;;;25.80;51.90;;;;;;6230193;28;1993;-76
2023/06/27 15:50:43;;;;;;;;;;;25.80;52.50;;;;;;6230673;28;1106;-75
2023/06/27 15:53:46;;;;;;;;;;;25.80;51.50;;;;;;6230156;28;1096;-76
2023/06/27 15:56:48;;;;;;;;;;;25.70;51.80;;;;;;6232674;28;1088;-74
2023/06/27 15:59:50;;;;;;;;;;;25.70;51.00;;;;;;6230826;28;1121;-74
2023/06/27 16:02:52;;;;;;;;;;;25.40;50.60;;;;;;6229831;28;958;-73
2023/06/27 16:05:53;;;;;;;;;;;25.40;50.80;;;;;;6229443;28;1973;-75
2023/06/27 16:08:56;;;;;;;;;;;25.40;50.50;;;;;;6230328;28;1789;-73
2023/06/27 16:11:58;;;;;;;;;;;25.40;51.10;;;;;;6229706;28;1078;-74
2023/06/27 16:15:00;;;;;;;;;;;25.40;50.50;;;;;;6229550;28;1365;-77
2023/06/27 16:18:01;;;;;;;;;;;25.30;50.40;;;;;;6229999;28;1911;-75
2023/06/27 16:21:03;;;;;;;;;;;25.30;51.10;;;;;;6229782;28;987;-73
2023/06/27 16:24:07;;;;;;;;;;;25.30;50.80;;;;;;6230293;28;1158;-76
2023/06/27 16:27:08;;;;;;;;;;;25.50;50.40;;;;;;6229373;28;1910;-75
2023/06/27 16:30:11;;;;;;;;;;;25.60;50.30;;;;;;6228104;28;1306;-75
2023/06/27 16:33:13;;;;;;;;;;;25.50;50.80;;;;;;6251886;28;1738;-74
2023/06/27 16:36:14;;;;;;;;;;;25.50;50.80;;;;;;6246637;28;2406;-74
2023/06/27 16:39:17;;;;;;;;;;;25.60;50.70;;;;;;6238323;28;1971;-73
2023/06/27 16:42:19;;;;;;;;;;;25.60;51.40;;;;;;6228985;28;1166;-73
2023/06/27 16:45:21;;;;;;;;;;;25.50;51.20;;;;;;6228552;28;1585;-75
2023/06/27 16:48:22;;;;;;;;;;;25.40;51.50;;;;;;6226581;28;2042;-76
2023/06/27 16:51:24;;;;;;;;;;;25.60;51.40;;;;;;6241436;28;1658;-74
2023/06/27 16:54:27;;;;;;;;;;;25.80;50.60;;;;;;6242923;28;1599;-69
2023/06/27 16:57:30;;;;;;;;;;;25.70;51.20;;;;;;6228392;28;1127;-70
2023/06/27 17:00:32;;;;;;;;;;;25.60;51.50;;;;;;6226703;28;1665;-70
2023/06/27 17:03:33;;;;;;;;;;;25.70;52.50;;;;;;6228919;28;1057;-69
2023/06/27 17:06:35;;;;;;;;;;;25.80;52.50;;;;;;6232715;28;1957;-70
2023/06/27 17:09:38;;;;;;;;;;;26.00;51.70;;;;;;6234542;28;1671;-69
2023/06/27 17:12:40;;;;;;;;;;;26.20;52.00;;;;;;6232544;28;1057;-70
2023/06/27 17:15:43;;;;;;;;;;;26.30;52.00;;;;;;6227883;28;1739;-70
2023/06/27 17:18:44;;;;;;;;;;;26.00;51.70;;;;;;6227352;28;1671;-70
2023/06/27 17:21:46;;;;;;;;;;;26.10;51.50;;;;;;6226925;28;1627;-69
2023/06/27 17:24:50;;;;;;;;;;;26.30;51.90;;;;;;6220983;28;1611;-70
2023/06/27 17:27:53;;;;;;;;;;;26.20;51.70;;;;;;6220693;28;1981;-70
2023/06/27 17:30:54;;;;;;;;;;;26.10;52.10;;;;;;6210101;28;1504;-69
2023/06/27 17:33:56;;;;;;;;;;;25.90;51.40;;;;;;6251533;28;1086;-69
2023/06/27 17:36:58;;;;;;;;;;;25.60;51.20;;;;;;6252209;28;1025;-70
2023/06/27 17:40:01;;;;;;;;;;;25.60;51.80;;;;;;6228426;28;1342;-68
2023/06/27 17:43:02;;;;;;;;;;;25.40;51.80;;;;;;6227723;28;1263;-70
2023/06/27 17:46:04;;;;;;;;;;;25.10;53.40;;;;;;6226111;28;1898;-69
2023/06/27 17:49:06;;;;;;;;;;;25.20;53.80;;;;;;6237334;28;1292;-70
2023/06/27 17:52:07;;;;;;;;;;;25.20;53.10;;;;;;6251348;28;1049;-70
2023/06/27 17:55:11;;;;;;;;;;;25.10;53.20;;;;;;6230966;28;2168;-69
2023/06/27 17:58:12;;;;;;;;;;;25.10;53.50;;;;;;6226323;28;2074;-70